sensor_id;sensor_type;location;lat;lon;timestamp;temperature;humidity
46217;DHT22;47258;59.424;13.482;2023-07-16T00:01:57;16.90;99.90
46217;DHT22;47258;59.424;13.482;2023-07-16T00:04:24;16.90;99.90
46217;DHT22;47258;59.424;13.482;2023-07-16T00:06:51;16.80;99.90
46217;DHT22;47258;59.424;13.482;2023-07-16T00:09:18;16.80;99.90
46217;DHT22;47258;59.424;13.482;2023-07-16T00:11:46;16.80;99.90
46217;DHT22;47258;59.424;13.482;2023-07-16T00:14:14;16.80;99.90
46217;DHT22;47258;59.424;13.482;2023-07-16T00:16:41;16.70;99.90
46217;DHT22;47258;59.424;13.482;2023-07-16T00:19:10;16.80;99.90
46217;DHT22;47258;59.424;13.482;2023-07-16T00:21:37;16.80;99.90
46217;DHT22;47258;59.424;13.482;2023-07-16T00:24:04;16.80;99.90
46217;DHT22;47258;59.424;13.482;2023-07-16T00:26:32;16.70;99.90
46217;DHT22;47258;59.424;13.482;2023-07-16T00:29:00;16.70;99.90
46217;DHT22;47258;59.424;13.482;2023-07-16T00:31:27;16.70;99.90
46217;DHT22;47258;59.424;13.482;2023-07-16T00:33:54;16.70;99.90
46217;DHT22;47258;59.424;13.482;2023-07-16T00:36:21;16.70;99.90
46217;DHT22;47258;59.424;13.482;2023-07-16T00:38:48;16.70;99.90
46217;DHT22;47258;59.424;13.482;2023-07-16T00:41:16;16.70;99.90
46217;DHT22;47258;59.424;13.482;2023-07-16T00:43:43;16.70;99.90
46217;DHT22;47258;59.424;13.482;2023-07-16T00:46:12;16.60;99.90
46217;DHT22;47258;59.424;13.482;2023-07-16T00:48:40;16.60;99.90
46217;DHT22;47258;59.424;13.482;2023-07-16T00:51:08;16.60;99.90
46217;DHT22;47258;59.424;13.482;2023-07-16T00:53:35;16.60;99.90
46217;DHT22;47258;59.424;13.482;2023-07-16T00:56:02;16.60;99.90
46217;DHT22;47258;59.424;13.482;2023-07-16T00:58:29;16.60;99.90
46217;DHT22;47258;59.424;13.482;2023-07-16T01:00:57;16.60;99.90
46217;DHT22;47258;59.424;13.482;2023-07-16T01:03:25;16.60;99.90
46217;DHT22;47258;59.424;13.482;2023-07-16T01:05:57;16.70;99.90
46217;DHT22;47258;59.424;13.482;2023-07-16T01:08:31;16.70;99.90
46217;DHT22;47258;59.424;13.482;2023-07-16T01:11:00;16.60;99.90
46217;DHT22;47258;59.424;13.482;2023-07-16T01:13:28;16.60;99.90
46217;DHT22;47258;59.424;13.482;2023-07-16T01:15:55;16.60;99.90
46217;DHT22;47258;59.424;13.482;2023-07-16T01:18:22;16.60;99.90
46217;DHT22;47258;59.424;13.482;2023-07-16T01:20:51;16.60;99.90
46217;DHT22;47258;59.424;13.482;2023-07-16T01:26:35;16.60;99.90
46217;DHT22;47258;59.424;13.482;2023-07-16T01:29:37;16.60;99.90
46217;DHT22;47258;59.424;13.482;2023-07-16T01:32:09;16.60;99.90
46217;DHT22;47258;59.424;13.482;2023-07-16T01:34:38;16.60;99.90
46217;DHT22;47258;59.424;13.482;2023-07-16T01:37:05;16.60;99.90
46217;DHT22;47258;59.424;13.482;2023-07-16T01:39:32;16.60;99.90
46217;DHT22;47258;59.424;13.482;2023-07-16T01:41:59;16.60;99.90
46217;DHT22;47258;59.424;13.482;2023-07-16T01:44:26;16.60;99.90
46217;DHT22;47258;59.424;13.482;2023-07-16T01:47:06;16.60;99.90
46217;DHT22;47258;59.424;13.482;2023-07-16T01:49:33;16.60;99.90
46217;DHT22;47258;59.424;13.482;2023-07-16T01:52:01;16.60;99.90
46217;DHT22;47258;59.424;13.482;2023-07-16T01:54:29;16.60;99.90
46217;DHT22;47258;59.424;13.482;2023-07-16T01:56:56;16.60;99.90
46217;DHT22;47258;59.424;13.482;2023-07-16T01:59:23;16.70;99.90
46217;DHT22;47258;59.424;13.482;2023-07-16T02:01:50;16.70;99.90
46217;DHT22;47258;59.424;13.482;2023-07-16T02:04:18;16.70;99.90
46217;DHT22;47258;59.424;13.482;2023-07-16T02:06:45;16.70;99.90
46217;DHT22;47258;59.424;13.482;2023-07-16T02:09:13;16.80;99.90
46217;DHT22;47258;59.424;13.482;2023-07-16T02:11:41;16.80;99.90
46217;DHT22;47258;59.424;13.482;2023-07-16T02:14:08;16.80;99.90
46217;DHT22;47258;59.424;13.482;2023-07-16T02:16:35;16.80;99.90
46217;DHT22;47258;59.424;13.482;2023-07-16T02:19:02;16.80;99.90
46217;DHT22;47258;59.424;13.482;2023-07-16T02:21:31;16.90;99.90
46217;DHT22;47258;59.424;13.482;2023-07-16T02:23:58;16.90;99.90
46217;DHT22;47258;59.424;13.482;2023-07-16T02:26:25;16.90;99.90
46217;DHT22;47258;59.424;13.482;2023-07-16T02:28:52;16.90;99.90
46217;DHT22;47258;59.424;13.482;2023-07-16T02:31:19;16.90;99.90
46217;DHT22;47258;59.424;13.482;2023-07-16T02:33:46;16.90;99.90
46217;DHT22;47258;59.424;13.482;2023-07-16T02:36:13;17.00;99.90
46217;DHT22;47258;59.424;13.482;2023-07-16T02:38:42;17.00;99.90
46217;DHT22;47258;59.424;13.482;2023-07-16T02:41:09;17.00;99.90
46217;DHT22;47258;59.424;13.482;2023-07-16T02:43:36;17.00;99.90
46217;DHT22;47258;59.424;13.482;2023-07-16T02:51:14;17.10;99.90
46217;DHT22;47258;59.424;13.482;2023-07-16T02:53:43;17.10;99.90
46217;DHT22;47258;59.424;13.482;2023-07-16T02:56:10;17.10;99.90
46217;DHT22;47258;59.424;13.482;2023-07-16T02:58:38;17.10;99.90
46217;DHT22;47258;59.424;13.482;2023-07-16T03:01:05;17.20;99.90
46217;DHT22;47258;59.424;13.482;2023-07-16T03:03:32;17.20;99.90
46217;DHT22;47258;59.424;13.482;2023-07-16T03:05:59;17.20;99.90
46217;DHT22;47258;59.424;13.482;2023-07-16T03:08:26;17.20;99.90
46217;DHT22;47258;59.424;13.482;2023-07-16T03:10:57;17.20;99.90
46217;DHT22;47258;59.424;13.482;2023-07-16T03:13:24;17.20;99.90
46217;DHT22;47258;59.424;13.482;2023-07-16T03:15:51;17.20;99.90
46217;DHT22;47258;59.424;13.482;2023-07-16T03:18:18;17.20;99.90
46217;DHT22;47258;59.424;13.482;2023-07-16T03:20:45;17.20;99.90
46217;DHT22;47258;59.424;13.482;2023-07-16T03:23:12;17.20;99.90
46217;DHT22;47258;59.424;13.482;2023-07-16T03:25:39;17.20;99.90
46217;DHT22;47258;59.424;13.482;2023-07-16T03:28:08;17.20;99.90
46217;DHT22;47258;59.424;13.482;2023-07-16T03:30:35;17.30;99.90
46217;DHT22;47258;59.424;13.482;2023-07-16T03:33:03;17.30;99.90
46217;DHT22;47258;59.424;13.482;2023-07-16T03:35:30;17.30;99.90
46217;DHT22;47258;59.424;13.482;2023-07-16T03:37:58;17.30;99.90
46217;DHT22;47258;59.424;13.482;2023-07-16T03:40:26;17.30;99.90
46217;DHT22;47258;59.424;13.482;2023-07-16T03:42:53;17.30;99.90
46217;DHT22;47258;59.424;13.482;2023-07-16T03:45:22;17.30;99.90
46217;DHT22;47258;59.424;13.482;2023-07-16T03:47:49;17.30;99.90
46217;DHT22;47258;59.424;13.482;2023-07-16T03:50:16;17.30;99.90
46217;DHT22;47258;59.424;13.482;2023-07-16T03:52:44;17.40;99.90
46217;DHT22;47258;59.424;13.482;2023-07-16T03:55:11;17.40;99.90
46217;DHT22;47258;59.424;13.482;2023-07-16T03:57:38;17.40;99.90
46217;DHT22;47258;59.424;13.482;2023-07-16T04:00:06;17.50;99.90
46217;DHT22;47258;59.424;13.482;2023-07-16T04:02:36;17.50;99.90
46217;DHT22;47258;59.424;13.482;2023-07-16T04:05:03;17.50;99.90
46217;DHT22;47258;59.424;13.482;2023-07-16T04:07:30;17.50;99.90
46217;DHT22;47258;59.424;13.482;2023-07-16T04:09:57;17.40;99.90
46217;DHT22;47258;59.424;13.482;2023-07-16T04:12:24;17.50;99.90
46217;DHT22;47258;59.424;13.482;2023-07-16T04:14:55;17.50;99.90
46217;DHT22;47258;59.424;13.482;2023-07-16T04:17:22;17.60;99.90
46217;DHT22;47258;59.424;13.482;2023-07-16T04:19:51;17.60;99.90
46217;DHT22;47258;59.424;13.482;2023-07-16T04:22:18;17.60;99.90
46217;DHT22;47258;59.424;13.482;2023-07-16T04:24:45;17.60;99.90
46217;DHT22;47258;59.424;13.482;2023-07-16T04:27:12;17.60;99.90
46217;DHT22;47258;59.424;13.482;2023-07-16T04:29:39;17.60;99.90
46217;DHT22;47258;59.424;13.482;2023-07-16T04:32:07;17.60;99.90
46217;DHT22;47258;59.424;13.482;2023-07-16T04:34:34;17.60;99.90
46217;DHT22;47258;59.424;13.482;2023-07-16T04:37:02;17.60;99.90
46217;DHT22;47258;59.424;13.482;2023-07-16T04:39:29;17.70;99.90
46217;DHT22;47258;59.424;13.482;2023-07-16T04:41:56;17.70;99.90
46217;DHT22;47258;59.424;13.482;2023-07-16T04:44:23;17.70;99.90
46217;DHT22;47258;59.424;13.482;2023-07-16T04:46:50;17.70;99.90
46217;DHT22;47258;59.424;13.482;2023-07-16T04:49:17;17.70;99.90
46217;DHT22;47258;59.424;13.482;2023-07-16T04:51:45;17.70;99.90
46217;DHT22;47258;59.424;13.482;2023-07-16T04:54:13;17.70;99.90
46217;DHT22;47258;59.424;13.482;2023-07-16T04:56:40;17.70;99.90
46217;DHT22;47258;59.424;13.482;2023-07-16T04:59:07;17.70;99.90
46217;DHT22;47258;59.424;13.482;2023-07-16T05:01:34;17.70;99.90
46217;DHT22;47258;59.424;13.482;2023-07-16T05:04:01;17.70;99.90
46217;DHT22;47258;59.424;13.482;2023-07-16T05:06:28;17.70;99.90
46217;DHT22;47258;59.424;13.482;2023-07-16T05:08:55;17.70;99.90
46217;DHT22;47258;59.424;13.482;2023-07-16T05:11:24;17.80;99.90
46217;DHT22;47258;59.424;13.482;2023-07-16T05:13:51;17.70;99.90
46217;DHT22;47258;59.424;13.482;2023-07-16T05:16:18;17.70;99.90
46217;DHT22;47258;59.424;13.482;2023-07-16T05:18:45;17.70;99.90
46217;DHT22;47258;59.424;13.482;2023-07-16T05:21:13;17.70;99.90
46217;DHT22;47258;59.424;13.482;2023-07-16T05:23:40;17.80;99.90
46217;DHT22;47258;59.424;13.482;2023-07-16T05:26:07;17.70;99.90
46217;DHT22;47258;59.424;13.482;2023-07-16T05:28:35;17.80;99.90
46217;DHT22;47258;59.424;13.482;2023-07-16T05:31:03;17.80;99.90
46217;DHT22;47258;59.424;13.482;2023-07-16T05:33:30;17.80;99.90
46217;DHT22;47258;59.424;13.482;2023-07-16T05:35:57;17.80;99.90
46217;DHT22;47258;59.424;13.482;2023-07-16T05:38:24;17.90;99.90
46217;DHT22;47258;59.424;13.482;2023-07-16T05:40:51;17.90;99.90
46217;DHT22;47258;59.424;13.482;2023-07-16T05:43:18;17.90;99.90
46217;DHT22;47258;59.424;13.482;2023-07-16T05:45:48;17.90;99.90
46217;DHT22;47258;59.424;13.482;2023-07-16T05:48:15;17.90;99.90
46217;DHT22;47258;59.424;13.482;2023-07-16T05:50:43;17.90;99.90
46217;DHT22;47258;59.424;13.482;2023-07-16T05:53:11;17.90;99.90
46217;DHT22;47258;59.424;13.482;2023-07-16T05:55:39;17.90;99.90
46217;DHT22;47258;59.424;13.482;2023-07-16T05:58:06;17.80;99.90
46217;DHT22;47258;59.424;13.482;2023-07-16T06:00:34;17.80;99.90
46217;DHT22;47258;59.424;13.482;2023-07-16T06:03:03;17.80;99.90
46217;DHT22;47258;59.424;13.482;2023-07-16T06:05:30;17.80;99.90
46217;DHT22;47258;59.424;13.482;2023-07-16T06:07:59;17.80;99.90
46217;DHT22;47258;59.424;13.482;2023-07-16T06:10:27;17.80;99.90
46217;DHT22;47258;59.424;13.482;2023-07-16T06:12:54;17.80;99.90
46217;DHT22;47258;59.424;13.482;2023-07-16T06:15:21;17.80;99.90
46217;DHT22;47258;59.424;13.482;2023-07-16T06:17:48;17.80;99.90
46217;DHT22;47258;59.424;13.482;2023-07-16T06:20:17;17.80;99.90
46217;DHT22;47258;59.424;13.482;2023-07-16T06:22:44;17.80;99.90
46217;DHT22;47258;59.424;13.482;2023-07-16T06:25:11;17.90;99.90
46217;DHT22;47258;59.424;13.482;2023-07-16T06:27:38;17.90;99.90
46217;DHT22;47258;59.424;13.482;2023-07-16T06:30:06;17.90;99.90
46217;DHT22;47258;59.424;13.482;2023-07-16T06:32:33;17.90;99.90
46217;DHT22;47258;59.424;13.482;2023-07-16T06:35:01;18.00;99.90
46217;DHT22;47258;59.424;13.482;2023-07-16T06:37:29;18.00;99.90
46217;DHT22;47258;59.424;13.482;2023-07-16T06:39:56;18.00;99.90
46217;DHT22;47258;59.424;13.482;2023-07-16T06:42:24;18.00;99.90
46217;DHT22;47258;59.424;13.482;2023-07-16T06:44:51;18.00;99.90
46217;DHT22;47258;59.424;13.482;2023-07-16T06:47:18;18.10;99.90
46217;DHT22;47258;59.424;13.482;2023-07-16T06:49:45;18.10;99.90
46217;DHT22;47258;59.424;13.482;2023-07-16T06:52:19;18.00;99.90
46217;DHT22;47258;59.424;13.482;2023-07-16T06:54:48;18.00;99.90
46217;DHT22;47258;59.424;13.482;2023-07-16T06:57:15;18.00;99.90
46217;DHT22;47258;59.424;13.482;2023-07-16T06:59:42;18.00;99.90
46217;DHT22;47258;59.424;13.482;2023-07-16T07:02:09;18.00;99.90
46217;DHT22;47258;59.424;13.482;2023-07-16T07:04:36;18.00;99.90
46217;DHT22;47258;59.424;13.482;2023-07-16T07:07:03;18.00;99.90
46217;DHT22;47258;59.424;13.482;2023-07-16T07:09:30;18.10;99.90
46217;DHT22;47258;59.424;13.482;2023-07-16T07:11:59;18.00;99.90
46217;DHT22;47258;59.424;13.482;2023-07-16T07:14:26;18.00;99.90
46217;DHT22;47258;59.424;13.482;2023-07-16T07:16:53;18.00;99.90
46217;DHT22;47258;59.424;13.482;2023-07-16T07:19:20;18.00;99.90
46217;DHT22;47258;59.424;13.482;2023-07-16T07:21:47;18.10;99.90
46217;DHT22;47258;59.424;13.482;2023-07-16T07:24:14;18.10;99.90
46217;DHT22;47258;59.424;13.482;2023-07-16T07:26:41;18.10;99.90
46217;DHT22;47258;59.424;13.482;2023-07-16T07:29:10;18.10;99.90
46217;DHT22;47258;59.424;13.482;2023-07-16T07:31:37;18.10;99.90
46217;DHT22;47258;59.424;13.482;2023-07-16T07:34:04;18.10;99.90
46217;DHT22;47258;59.424;13.482;2023-07-16T07:36:31;18.00;99.90
46217;DHT22;47258;59.424;13.482;2023-07-16T07:38:58;18.10;99.90
46217;DHT22;47258;59.424;13.482;2023-07-16T07:41:25;18.10;99.90
46217;DHT22;47258;59.424;13.482;2023-07-16T07:43:52;18.10;99.90
46217;DHT22;47258;59.424;13.482;2023-07-16T07:46:20;18.10;99.90
46217;DHT22;47258;59.424;13.482;2023-07-16T07:48:47;18.10;99.90
46217;DHT22;47258;59.424;13.482;2023-07-16T07:51:14;18.10;99.90
46217;DHT22;47258;59.424;13.482;2023-07-16T07:53:41;18.10;99.90
46217;DHT22;47258;59.424;13.482;2023-07-16T07:56:08;18.10;99.90
46217;DHT22;47258;59.424;13.482;2023-07-16T07:58:35;18.10;99.90
46217;DHT22;47258;59.424;13.482;2023-07-16T08:01:06;18.10;99.90
46217;DHT22;47258;59.424;13.482;2023-07-16T08:03:35;18.10;99.90
46217;DHT22;47258;59.424;13.482;2023-07-16T08:06:02;18.10;99.90
46217;DHT22;47258;59.424;13.482;2023-07-16T08:08:29;18.10;99.90
46217;DHT22;47258;59.424;13.482;2023-07-16T08:10:56;18.00;99.90
46217;DHT22;47258;59.424;13.482;2023-07-16T08:13:23;18.00;99.90
46217;DHT22;47258;59.424;13.482;2023-07-16T08:15:50;18.00;99.90
46217;DHT22;47258;59.424;13.482;2023-07-16T08:18:17;18.00;99.90
46217;DHT22;47258;59.424;13.482;2023-07-16T08:20:46;17.90;99.90
46217;DHT22;47258;59.424;13.482;2023-07-16T08:23:13;17.90;99.90
46217;DHT22;47258;59.424;13.482;2023-07-16T08:25:40;17.90;99.90
46217;DHT22;47258;59.424;13.482;2023-07-16T08:28:07;17.90;99.90
46217;DHT22;47258;59.424;13.482;2023-07-16T08:30:35;17.90;99.90
46217;DHT22;47258;59.424;13.482;2023-07-16T08:33:02;17.90;99.90
46217;DHT22;47258;59.424;13.482;2023-07-16T08:35:29;17.90;99.90
46217;DHT22;47258;59.424;13.482;2023-07-16T08:37:58;17.90;99.90
46217;DHT22;47258;59.424;13.482;2023-07-16T08:40:26;18.00;99.90
46217;DHT22;47258;59.424;13.482;2023-07-16T08:42:55;18.00;99.90
46217;DHT22;47258;59.424;13.482;2023-07-16T08:45:24;17.90;99.90
46217;DHT22;47258;59.424;13.482;2023-07-16T08:47:52;17.90;99.90
46217;DHT22;47258;59.424;13.482;2023-07-16T08:50:21;17.90;99.90
46217;DHT22;47258;59.424;13.482;2023-07-16T08:52:49;17.80;99.90
46217;DHT22;47258;59.424;13.482;2023-07-16T08:55:18;17.90;99.90
46217;DHT22;47258;59.424;13.482;2023-07-16T08:57:45;17.90;99.90
46217;DHT22;47258;59.424;13.482;2023-07-16T09:00:14;17.80;99.90
46217;DHT22;47258;59.424;13.482;2023-07-16T09:02:41;17.90;99.90
46217;DHT22;47258;59.424;13.482;2023-07-16T09:05:09;17.90;99.90
46217;DHT22;47258;59.424;13.482;2023-07-16T09:07:36;18.00;99.90
46217;DHT22;47258;59.424;13.482;2023-07-16T09:10:05;18.10;99.90
46217;DHT22;47258;59.424;13.482;2023-07-16T09:12:34;18.10;99.90
46217;DHT22;47258;59.424;13.482;2023-07-16T09:15:01;18.20;99.90
46217;DHT22;47258;59.424;13.482;2023-07-16T09:17:28;18.20;99.90
46217;DHT22;47258;59.424;13.482;2023-07-16T09:19:55;18.20;99.90
46217;DHT22;47258;59.424;13.482;2023-07-16T09:22:22;18.20;99.90
46217;DHT22;47258;59.424;13.482;2023-07-16T09:24:49;18.20;99.90
46217;DHT22;47258;59.424;13.482;2023-07-16T09:27:16;18.30;99.90
46217;DHT22;47258;59.424;13.482;2023-07-16T09:29:45;18.40;99.90
46217;DHT22;47258;59.424;13.482;2023-07-16T09:32:12;18.60;99.90
46217;DHT22;47258;59.424;13.482;2023-07-16T09:34:40;18.80;99.90
46217;DHT22;47258;59.424;13.482;2023-07-16T09:37:07;18.90;99.90
46217;DHT22;47258;59.424;13.482;2023-07-16T09:39:37;19.10;99.90
46217;DHT22;47258;59.424;13.482;2023-07-16T09:42:04;19.20;99.90
46217;DHT22;47258;59.424;13.482;2023-07-16T09:44:32;19.30;99.90
46217;DHT22;47258;59.424;13.482;2023-07-16T09:47:00;19.40;99.90
46217;DHT22;47258;59.424;13.482;2023-07-16T09:49:28;19.30;99.90
46217;DHT22;47258;59.424;13.482;2023-07-16T09:51:57;19.40;99.90
46217;DHT22;47258;59.424;13.482;2023-07-16T09:54:25;19.50;99.90
46217;DHT22;47258;59.424;13.482;2023-07-16T09:56:56;19.40;99.90
46217;DHT22;47258;59.424;13.482;2023-07-16T09:59:27;19.60;99.90
46217;DHT22;47258;59.424;13.482;2023-07-16T10:01:55;19.60;99.90
46217;DHT22;47258;59.424;13.482;2023-07-16T10:04:24;19.50;99.90
46217;DHT22;47258;59.424;13.482;2023-07-16T10:06:53;19.60;99.90
46217;DHT22;47258;59.424;13.482;2023-07-16T10:09:33;20.00;99.90
46217;DHT22;47258;59.424;13.482;2023-07-16T10:12:14;20.30;99.90
46217;DHT22;47258;59.424;13.482;2023-07-16T10:14:44;20.40;99.90
46217;DHT22;47258;59.424;13.482;2023-07-16T10:17:15;20.30;99.90
46217;DHT22;47258;59.424;13.482;2023-07-16T10:19:52;20.40;99.90
46217;DHT22;47258;59.424;13.482;2023-07-16T10:22:32;20.60;99.90
46217;DHT22;47258;59.424;13.482;2023-07-16T10:24:59;20.70;99.90
46217;DHT22;47258;59.424;13.482;2023-07-16T10:27:28;20.80;99.90
46217;DHT22;47258;59.424;13.482;2023-07-16T10:29:55;21.00;99.90
46217;DHT22;47258;59.424;13.482;2023-07-16T10:32:26;21.10;99.90
46217;DHT22;47258;59.424;13.482;2023-07-16T10:34:55;21.10;99.90
46217;DHT22;47258;59.424;13.482;2023-07-16T10:37:23;21.00;99.90
46217;DHT22;47258;59.424;13.482;2023-07-16T10:39:52;21.10;99.90
46217;DHT22;47258;59.424;13.482;2023-07-16T10:42:20;21.10;99.90
46217;DHT22;47258;59.424;13.482;2023-07-16T10:44:49;21.10;99.90
46217;DHT22;47258;59.424;13.482;2023-07-16T10:47:21;21.10;99.90
46217;DHT22;47258;59.424;13.482;2023-07-16T10:49:49;21.20;99.90
46217;DHT22;47258;59.424;13.482;2023-07-16T10:52:19;21.10;99.90
46217;DHT22;47258;59.424;13.482;2023-07-16T10:54:46;21.20;99.90
46217;DHT22;47258;59.424;13.482;2023-07-16T10:57:14;21.50;99.90
46217;DHT22;47258;59.424;13.482;2023-07-16T10:59:43;21.50;99.90
46217;DHT22;47258;59.424;13.482;2023-07-16T11:02:12;21.70;99.90
46217;DHT22;47258;59.424;13.482;2023-07-16T11:04:40;21.90;99.90
46217;DHT22;47258;59.424;13.482;2023-07-16T11:07:08;22.00;99.90
46217;DHT22;47258;59.424;13.482;2023-07-16T11:09:42;22.00;99.90
46217;DHT22;47258;59.424;13.482;2023-07-16T11:12:11;22.00;99.90
46217;DHT22;47258;59.424;13.482;2023-07-16T11:14:39;22.10;99.90
46217;DHT22;47258;59.424;13.482;2023-07-16T11:17:07;22.20;99.90
46217;DHT22;47258;59.424;13.482;2023-07-16T11:19:36;22.30;99.90
46217;DHT22;47258;59.424;13.482;2023-07-16T11:22:04;22.40;99.90
46217;DHT22;47258;59.424;13.482;2023-07-16T11:24:44;22.50;99.90
46217;DHT22;47258;59.424;13.482;2023-07-16T11:27:15;22.40;99.90
46217;DHT22;47258;59.424;13.482;2023-07-16T11:29:46;22.10;99.90
46217;DHT22;47258;59.424;13.482;2023-07-16T11:32:21;22.10;99.90
46217;DHT22;47258;59.424;13.482;2023-07-16T11:34:52;22.00;99.90
46217;DHT22;47258;59.424;13.482;2023-07-16T11:37:20;22.00;99.90
46217;DHT22;47258;59.424;13.482;2023-07-16T11:39:49;22.20;99.90
46217;DHT22;47258;59.424;13.482;2023-07-16T11:42:22;22.50;99.90
46217;DHT22;47258;59.424;13.482;2023-07-16T11:44:50;22.60;99.90
46217;DHT22;47258;59.424;13.482;2023-07-16T11:47:18;22.70;99.90
46217;DHT22;47258;59.424;13.482;2023-07-16T11:49:45;22.80;99.90
46217;DHT22;47258;59.424;13.482;2023-07-16T11:52:12;22.80;99.90
46217;DHT22;47258;59.424;13.482;2023-07-16T11:54:39;22.80;99.90
46217;DHT22;47258;59.424;13.482;2023-07-16T11:57:07;22.60;99.90
46217;DHT22;47258;59.424;13.482;2023-07-16T11:59:35;22.60;99.90
46217;DHT22;47258;59.424;13.482;2023-07-16T12:02:02;22.50;99.90
46217;DHT22;47258;59.424;13.482;2023-07-16T12:04:29;22.40;99.90
46217;DHT22;47258;59.424;13.482;2023-07-16T12:06:56;22.40;99.90
46217;DHT22;47258;59.424;13.482;2023-07-16T12:09:23;22.30;99.90
46217;DHT22;47258;59.424;13.482;2023-07-16T12:11:50;22.30;99.90
46217;DHT22;47258;59.424;13.482;2023-07-16T12:14:19;22.30;99.90
46217;DHT22;47258;59.424;13.482;2023-07-16T12:16:46;22.30;99.90
46217;DHT22;47258;59.424;13.482;2023-07-16T12:19:13;22.30;99.90
46217;DHT22;47258;59.424;13.482;2023-07-16T12:21:40;22.40;99.90
46217;DHT22;47258;59.424;13.482;2023-07-16T12:24:07;22.40;99.90
46217;DHT22;47258;59.424;13.482;2023-07-16T12:26:35;22.20;99.90
46217;DHT22;47258;59.424;13.482;2023-07-16T12:29:02;22.10;99.90
46217;DHT22;47258;59.424;13.482;2023-07-16T12:31:31;22.00;99.90
46217;DHT22;47258;59.424;13.482;2023-07-16T12:33:59;21.80;99.90
46217;DHT22;47258;59.424;13.482;2023-07-16T12:36:27;21.70;99.90
46217;DHT22;47258;59.424;13.482;2023-07-16T12:38:55;21.60;99.90
46217;DHT22;47258;59.424;13.482;2023-07-16T12:41:22;21.40;99.90
46217;DHT22;47258;59.424;13.482;2023-07-16T12:43:49;21.20;99.90
46217;DHT22;47258;59.424;13.482;2023-07-16T12:46:16;20.90;99.90
46217;DHT22;47258;59.424;13.482;2023-07-16T12:48:44;20.70;99.90
46217;DHT22;47258;59.424;13.482;2023-07-16T12:51:11;20.40;99.90
46217;DHT22;47258;59.424;13.482;2023-07-16T12:53:38;20.30;99.90
46217;DHT22;47258;59.424;13.482;2023-07-16T12:56:05;20.00;99.90
46217;DHT22;47258;59.424;13.482;2023-07-16T12:58:33;19.90;99.90
46217;DHT22;47258;59.424;13.482;2023-07-16T13:01:00;19.70;99.90
46217;DHT22;47258;59.424;13.482;2023-07-16T13:03:27;19.50;99.90
46217;DHT22;47258;59.424;13.482;2023-07-16T13:05:55;19.40;99.90
46217;DHT22;47258;59.424;13.482;2023-07-16T13:08:22;19.50;99.90
46217;DHT22;47258;59.424;13.482;2023-07-16T13:10:49;19.80;99.90
46217;DHT22;47258;59.424;13.482;2023-07-16T13:13:16;20.00;99.90
46217;DHT22;47258;59.424;13.482;2023-07-16T13:15:43;20.20;99.90
46217;DHT22;47258;59.424;13.482;2023-07-16T13:18:11;20.50;99.90
46217;DHT22;47258;59.424;13.482;2023-07-16T13:20:38;20.70;99.90
46217;DHT22;47258;59.424;13.482;2023-07-16T13:23:07;20.80;99.90
46217;DHT22;47258;59.424;13.482;2023-07-16T13:25:35;20.90;99.90
46217;DHT22;47258;59.424;13.482;2023-07-16T13:28:04;20.80;99.90
46217;DHT22;47258;59.424;13.482;2023-07-16T13:30:31;20.70;99.90
46217;DHT22;47258;59.424;13.482;2023-07-16T13:32:58;20.60;99.90
46217;DHT22;47258;59.424;13.482;2023-07-16T13:35:27;20.50;99.90
46217;DHT22;47258;59.424;13.482;2023-07-16T13:37:54;20.30;99.90
46217;DHT22;47258;59.424;13.482;2023-07-16T13:40:22;20.30;99.90
46217;DHT22;47258;59.424;13.482;2023-07-16T13:42:49;20.30;99.90
46217;DHT22;47258;59.424;13.482;2023-07-16T13:45:16;20.50;99.90
46217;DHT22;47258;59.424;13.482;2023-07-16T13:47:43;20.60;99.90
46217;DHT22;47258;59.424;13.482;2023-07-16T13:50:10;20.70;99.90
46217;DHT22;47258;59.424;13.482;2023-07-16T13:52:37;20.80;99.90
46217;DHT22;47258;59.424;13.482;2023-07-16T13:55:05;20.90;99.90
46217;DHT22;47258;59.424;13.482;2023-07-16T13:57:34;20.80;99.90
46217;DHT22;47258;59.424;13.482;2023-07-16T14:00:01;20.70;99.90
46217;DHT22;47258;59.424;13.482;2023-07-16T14:02:29;20.60;99.90
46217;DHT22;47258;59.424;13.482;2023-07-16T14:04:56;20.50;99.90
46217;DHT22;47258;59.424;13.482;2023-07-16T14:07:23;20.50;99.90
46217;DHT22;47258;59.424;13.482;2023-07-16T14:09:50;20.30;99.90
46217;DHT22;47258;59.424;13.482;2023-07-16T14:12:18;20.20;99.90
46217;DHT22;47258;59.424;13.482;2023-07-16T14:14:46;20.20;99.90
46217;DHT22;47258;59.424;13.482;2023-07-16T14:17:13;20.40;99.90
46217;DHT22;47258;59.424;13.482;2023-07-16T14:19:41;20.70;99.90
46217;DHT22;47258;59.424;13.482;2023-07-16T14:22:08;20.90;99.90
46217;DHT22;47258;59.424;13.482;2023-07-16T14:24:37;20.90;99.90
46217;DHT22;47258;59.424;13.482;2023-07-16T14:27:06;20.90;99.90
46217;DHT22;47258;59.424;13.482;2023-07-16T14:29:33;21.10;99.90
46217;DHT22;47258;59.424;13.482;2023-07-16T14:32:02;21.20;99.90
46217;DHT22;47258;59.424;13.482;2023-07-16T14:34:30;21.40;99.90
46217;DHT22;47258;59.424;13.482;2023-07-16T14:36:57;21.60;99.90
46217;DHT22;47258;59.424;13.482;2023-07-16T14:39:24;21.90;99.90
46217;DHT22;47258;59.424;13.482;2023-07-16T14:41:51;22.00;99.90
46217;DHT22;47258;59.424;13.482;2023-07-16T14:44:18;22.20;99.90
46217;DHT22;47258;59.424;13.482;2023-07-16T14:46:45;22.30;99.90
46217;DHT22;47258;59.424;13.482;2023-07-16T14:49:13;22.40;99.90
46217;DHT22;47258;59.424;13.482;2023-07-16T14:51:40;22.60;99.90
46217;DHT22;47258;59.424;13.482;2023-07-16T14:54:08;22.70;99.90
46217;DHT22;47258;59.424;13.482;2023-07-16T14:56:35;22.80;99.90
46217;DHT22;47258;59.424;13.482;2023-07-16T14:59:02;22.80;99.90
46217;DHT22;47258;59.424;13.482;2023-07-16T15:01:30;22.90;99.90
46217;DHT22;47258;59.424;13.482;2023-07-16T15:03:57;22.90;99.90
46217;DHT22;47258;59.424;13.482;2023-07-16T15:06:26;22.70;99.90
46217;DHT22;47258;59.424;13.482;2023-07-16T15:08:53;22.60;99.90
46217;DHT22;47258;59.424;13.482;2023-07-16T15:11:20;22.30;99.90
46217;DHT22;47258;59.424;13.482;2023-07-16T15:13:47;21.90;99.90
46217;DHT22;47258;59.424;13.482;2023-07-16T15:16:14;21.70;99.90
46217;DHT22;47258;59.424;13.482;2023-07-16T15:18:41;21.50;99.90
46217;DHT22;47258;59.424;13.482;2023-07-16T15:21:08;21.30;99.90
46217;DHT22;47258;59.424;13.482;2023-07-16T15:23:37;21.10;99.90
46217;DHT22;47258;59.424;13.482;2023-07-16T15:26:05;20.90;99.90
46217;DHT22;47258;59.424;13.482;2023-07-16T15:28:36;20.80;99.90